Tarawa, Kiribati
Current Conditions -  °F | °C
As of 8:00 PM on Thursday 23 Oct 2014 (Local Time) from NGTT Reporting Station
Rain Showers Rain Showers  
Wind Chill: 82°   Ceiling: Unl
Heat Index: 89°   Visibility: 6mi
Dew Point: 75°   Wind: 14mph
Humidity: 79%   Direction: 90°E
Pressure: 29.8"   Gusts: NA
Location:  1.33°N, 172.98°E
Report Text: NGTT 230800Z 09012KT 9999 VCSH SCT017CB 28/24 Q1009
Loading
Personal Weather Stations






























Interactive Weather Map
Tropical Storm Tracking
New forecast layout! Learn more

10-Day Weather Forecast

Advertisements
Track Severe Weather on mobile